createdAt,value
2019-03-08T00:00:59.896Z,9.00
2019-03-08T00:03:28.686Z,8.90
2019-03-08T00:05:57.394Z,8.90
2019-03-08T00:08:26.311Z,8.90
2019-03-08T00:10:54.880Z,8.90
2019-03-08T00:13:23.706Z,8.80
2019-03-08T00:15:52.221Z,8.80
2019-03-08T00:18:21.760Z,8.70
2019-03-08T00:20:51.715Z,8.70
2019-03-08T00:23:20.335Z,8.70
2019-03-08T00:25:49.294Z,8.60
2019-03-08T00:28:17.880Z,8.60
2019-03-08T00:30:47.940Z,8.60
2019-03-08T00:33:16.648Z,8.50
2019-03-08T00:35:45.208Z,8.50
2019-03-08T00:38:13.754Z,8.50
2019-03-08T00:40:42.770Z,8.40
2019-03-08T00:43:11.358Z,8.40
2019-03-08T00:45:39.982Z,8.40
2019-03-08T00:48:08.798Z,8.40
2019-03-08T00:50:37.386Z,8.40
2019-03-08T00:53:06.147Z,8.40
2019-03-08T00:55:35.103Z,8.40
2019-03-08T00:58:03.835Z,8.30
2019-03-08T01:00:33.382Z,8.40
2019-03-08T01:03:01.965Z,8.40
2019-03-08T01:05:30.669Z,8.40
2019-03-08T01:07:59.339Z,8.40
2019-03-08T01:10:27.991Z,8.40
2019-03-08T01:12:56.653Z,8.40
2019-03-08T01:15:26.848Z,8.50
2019-03-08T01:17:56.232Z,8.40
2019-03-08T01:20:24.852Z,8.40
2019-03-08T01:22:53.551Z,8.40
2019-03-08T01:25:22.268Z,8.40
2019-03-08T01:27:59.163Z,8.40
2019-03-08T01:30:29.657Z,8.40
2019-03-08T01:32:59.868Z,8.40
2019-03-08T01:35:28.421Z,8.40
2019-03-08T01:37:56.290Z,8.40
2019-03-08T01:40:24.325Z,8.40
2019-03-08T01:42:52.265Z,8.40
2019-03-08T01:45:20.183Z,8.30
2019-03-08T01:47:48.108Z,8.30
2019-03-08T01:50:16.751Z,8.30
2019-03-08T01:52:44.851Z,8.30
2019-03-08T01:55:12.886Z,8.30
2019-03-08T01:57:40.729Z,8.30
2019-03-08T02:00:10.818Z,8.30
2019-03-08T02:02:39.650Z,8.30
2019-03-08T02:05:07.503Z,8.20
2019-03-08T02:07:35.630Z,8.20
2019-03-08T02:10:05.160Z,8.20
2019-03-08T02:12:33.551Z,8.10
2019-03-08T02:15:01.473Z,8.10
2019-03-08T02:17:29.648Z,8.10
2019-03-08T02:19:57.745Z,8.10
2019-03-08T02:22:26.076Z,8.10
2019-03-08T02:24:54.080Z,8.10
2019-03-08T02:27:22.008Z,8.10
2019-03-08T02:29:50.027Z,8.10
2019-03-08T02:32:17.990Z,8.00
2019-03-08T02:34:46.040Z,8.10
2019-03-08T02:37:14.079Z,8.10
2019-03-08T02:39:42.200Z,8.10
2019-03-08T02:42:10.322Z,8.10
2019-03-08T02:44:38.420Z,8.20
2019-03-08T02:47:06.344Z,8.20
2019-03-08T02:49:35.846Z,8.20
2019-03-08T02:52:04.095Z,8.20
2019-03-08T02:54:31.975Z,8.20
2019-03-08T02:56:59.869Z,8.20
2019-03-08T02:59:27.871Z,8.20
2019-03-08T03:01:56.525Z,8.10
2019-03-08T03:04:24.464Z,8.10
2019-03-08T03:06:52.535Z,8.00
2019-03-08T03:09:20.457Z,8.00
2019-03-08T03:11:48.446Z,8.00
2019-03-08T03:14:16.319Z,8.00
2019-03-08T03:16:44.287Z,7.90
2019-03-08T03:19:12.171Z,7.90
2019-03-08T03:21:40.041Z,7.90
2019-03-08T03:24:07.921Z,7.80
2019-03-08T03:26:35.752Z,7.80
2019-03-08T03:29:03.666Z,7.80
2019-03-08T03:31:31.747Z,7.80
2019-03-08T03:33:59.672Z,7.80
2019-03-08T03:36:27.502Z,7.80
2019-03-08T03:38:55.769Z,7.80
2019-03-08T03:41:23.815Z,7.80
2019-03-08T03:43:51.866Z,7.80
2019-03-08T03:46:19.865Z,7.80
2019-03-08T03:48:47.869Z,7.80
2019-03-08T03:51:15.884Z,7.80
2019-03-08T03:53:43.910Z,7.70
2019-03-08T03:56:13.295Z,7.70
2019-03-08T03:58:41.241Z,7.70
2019-03-08T04:01:10.871Z,7.70
2019-03-08T04:03:39.180Z,7.60
2019-03-08T04:06:07.209Z,7.60
2019-03-08T04:08:37.459Z,7.60
2019-03-08T04:11:05.631Z,7.60
2019-03-08T04:13:33.778Z,7.60
2019-03-08T04:16:01.960Z,7.60
2019-03-08T04:18:29.900Z,7.60
2019-03-08T04:20:57.884Z,7.70
2019-03-08T04:23:25.901Z,7.60
2019-03-08T04:25:54.188Z,7.60
2019-03-08T04:28:22.463Z,7.60
2019-03-08T04:30:50.320Z,7.60
2019-03-08T04:33:18.611Z,7.60
2019-03-08T04:35:46.512Z,7.60
2019-03-08T04:38:14.573Z,7.60
2019-03-08T04:40:42.434Z,7.60
2019-03-08T04:43:10.267Z,7.60
2019-03-08T04:45:38.044Z,7.60
2019-03-08T04:48:06.230Z,7.60
2019-03-08T04:50:34.037Z,7.60
2019-03-08T04:53:02.784Z,7.60
2019-03-08T04:55:31.064Z,7.50
2019-03-08T04:57:59.019Z,7.50
2019-03-08T05:00:28.009Z,7.50
2019-03-08T05:02:56.293Z,7.50
2019-03-08T05:05:24.049Z,7.50
2019-03-08T05:07:51.836Z,7.50
2019-03-08T05:10:20.443Z,7.60
2019-03-08T05:12:48.461Z,7.60
2019-03-08T05:15:16.473Z,7.60
2019-03-08T05:17:44.628Z,7.60
2019-03-08T05:20:12.572Z,7.60
2019-03-08T05:22:40.445Z,7.50
2019-03-08T05:25:09.623Z,7.60
2019-03-08T05:27:38.217Z,7.60
2019-03-08T05:30:08.084Z,7.60
2019-03-08T05:32:36.419Z,7.70
2019-03-08T05:35:05.597Z,7.70
2019-03-08T05:37:33.501Z,7.70
2019-03-08T05:40:02.175Z,7.80
2019-03-08T05:42:30.589Z,7.80
2019-03-08T05:44:58.731Z,7.80
2019-03-08T05:47:27.097Z,7.80
2019-03-08T05:49:55.401Z,7.90
2019-03-08T05:52:23.548Z,7.90
2019-03-08T05:54:51.615Z,7.90
2019-03-08T05:57:20.620Z,7.90
2019-03-08T05:59:49.390Z,7.90
2019-03-08T06:02:17.622Z,8.00
2019-03-08T06:04:46.065Z,8.00
2019-03-08T06:07:14.573Z,8.00
2019-03-08T06:09:42.939Z,8.00
2019-03-08T06:12:12.183Z,8.10
2019-03-08T06:14:40.391Z,8.10
2019-03-08T06:17:09.470Z,8.20
2019-03-08T06:19:38.074Z,8.30
2019-03-08T06:22:06.454Z,8.30
2019-03-08T06:24:34.741Z,8.30
2019-03-08T06:27:03.226Z,8.30
2019-03-08T06:29:31.195Z,8.40
2019-03-08T06:31:59.757Z,8.50
2019-03-08T06:34:32.877Z,8.50
2019-03-08T06:37:02.384Z,8.60
2019-03-08T06:39:30.925Z,8.60
2019-03-08T06:41:59.817Z,8.70
2019-03-08T06:44:28.057Z,8.70
2019-03-08T06:46:56.471Z,8.80
2019-03-08T06:49:24.765Z,8.80
2019-03-08T06:51:53.215Z,8.90
2019-03-08T06:54:22.016Z,8.90
2019-03-08T06:56:50.581Z,9.00
2019-03-08T06:59:22.008Z,9.00
2019-03-08T07:01:50.626Z,9.10
2019-03-08T07:04:19.115Z,9.10
2019-03-08T07:06:47.565Z,9.20
2019-03-08T07:09:15.854Z,9.20
2019-03-08T07:11:45.072Z,9.30
2019-03-08T07:14:13.253Z,9.30
2019-03-08T07:16:41.511Z,9.40
2019-03-08T07:19:09.632Z,9.50
2019-03-08T07:21:39.522Z,9.50
2019-03-08T07:24:18.672Z,9.60
2019-03-08T07:26:48.733Z,9.60
2019-03-08T07:29:18.575Z,9.70
2019-03-08T07:32:00.817Z,9.80
2019-03-08T07:34:30.640Z,9.80
2019-03-08T07:37:01.103Z,9.80
2019-03-08T07:39:39.844Z,9.80
2019-03-08T07:42:09.816Z,9.90
2019-03-08T07:44:40.382Z,9.90
2019-03-08T07:47:28.914Z,10.00
2019-03-08T07:49:58.847Z,10.00
2019-03-08T07:52:29.644Z,10.00
2019-03-08T07:55:09.348Z,10.10
2019-03-08T07:57:49.135Z,10.10
2019-03-08T08:00:20.183Z,10.20
2019-03-08T08:03:04.140Z,10.30
2019-03-08T08:05:44.330Z,10.40
2019-03-08T08:08:17.879Z,10.70
2019-03-08T08:10:51.883Z,11.10
2019-03-08T08:13:30.024Z,11.60
2019-03-08T08:16:17.704Z,11.80
2019-03-08T08:18:48.407Z,12.00
2019-03-08T08:21:19.185Z,12.00
2019-03-08T08:24:02.162Z,12.00
2019-03-08T08:26:49.368Z,12.10
2019-03-08T08:29:36.653Z,12.20
2019-03-08T08:32:07.761Z,12.40
2019-03-08T08:34:45.505Z,12.60
2019-03-08T08:37:19.771Z,12.70
2019-03-08T08:40:10.324Z,12.50
2019-03-08T08:42:57.504Z,12.30
2019-03-08T08:45:40.304Z,12.20
2019-03-08T08:48:21.443Z,12.00
2019-03-08T08:50:52.294Z,11.90
2019-03-08T08:53:26.245Z,11.90
2019-03-08T08:56:00.007Z,11.90
2019-03-08T08:58:40.434Z,11.90
2019-03-08T09:01:23.115Z,11.90
2019-03-08T09:03:54.007Z,11.90
2019-03-08T09:06:40.846Z,11.90
2019-03-08T09:09:26.633Z,11.90
2019-03-08T09:12:02.806Z,11.90
2019-03-08T09:14:33.762Z,12.00
2019-03-08T09:17:07.023Z,11.90
2019-03-08T09:19:40.842Z,11.90
2019-03-08T09:22:27.529Z,11.90
2019-03-08T09:24:58.285Z,12.00
2019-03-08T09:27:37.638Z,12.20
2019-03-08T09:30:14.713Z,12.30
2019-03-08T09:32:59.463Z,12.30
2019-03-08T09:35:31.357Z,12.30
2019-03-08T09:38:14.715Z,12.20
2019-03-08T09:40:48.141Z,12.20
2019-03-08T09:43:30.899Z,12.20
2019-03-08T09:46:04.700Z,12.10
2019-03-08T09:48:55.194Z,12.10
2019-03-08T09:51:32.339Z,12.20
2019-03-08T09:54:06.019Z,12.20
2019-03-08T09:56:36.885Z,12.20
2019-03-08T09:59:23.558Z,12.20
2019-03-08T10:02:04.122Z,12.30
2019-03-08T10:04:37.407Z,12.20
2019-03-08T10:07:16.870Z,12.20
2019-03-08T10:09:47.512Z,12.10
2019-03-08T10:12:21.384Z,12.10
2019-03-08T10:15:06.965Z,12.10
2019-03-08T10:17:55.854Z,12.10
2019-03-08T10:20:41.728Z,12.10
2019-03-08T10:23:29.011Z,12.10
2019-03-08T10:26:00.043Z,12.10
2019-03-08T10:28:33.926Z,12.00
2019-03-08T10:31:10.348Z,12.00
2019-03-08T10:33:59.132Z,12.00
2019-03-08T10:36:38.970Z,12.00
2019-03-08T10:39:24.523Z,12.00
2019-03-08T10:41:55.444Z,12.00
2019-03-08T10:44:26.289Z,12.00
2019-03-08T10:46:57.161Z,12.00
2019-03-08T10:49:27.772Z,12.00
2019-03-08T10:52:04.496Z,12.10
2019-03-08T10:54:37.999Z,12.30
2019-03-08T10:57:08.939Z,12.50
2019-03-08T10:59:39.900Z,12.60
2019-03-08T11:02:26.951Z,12.70
2019-03-08T11:05:19.376Z,12.90
2019-03-08T11:07:50.276Z,13.10
2019-03-08T11:10:26.860Z,13.10
2019-03-08T11:13:03.614Z,13.10
2019-03-08T11:15:41.636Z,12.90
2019-03-08T11:18:27.589Z,12.70
2019-03-08T11:21:10.248Z,12.60
2019-03-08T11:23:42.500Z,12.60
2019-03-08T11:26:22.125Z,12.60
2019-03-08T11:28:52.949Z,12.80
2019-03-08T11:31:37.319Z,13.10
2019-03-08T11:34:11.198Z,13.40
2019-03-08T11:36:47.688Z,13.70
2019-03-08T11:39:20.072Z,13.80
2019-03-08T11:41:53.457Z,13.90
2019-03-08T11:44:24.220Z,13.90
2019-03-08T11:46:57.433Z,14.00
2019-03-08T11:49:28.174Z,14.10
2019-03-08T11:51:59.040Z,14.20
2019-03-08T11:54:42.271Z,14.30
2019-03-08T11:57:13.093Z,14.30
2019-03-08T11:59:44.019Z,14.20
2019-03-08T12:02:14.698Z,14.20
2019-03-08T12:04:45.550Z,13.90
2019-03-08T12:07:19.028Z,13.80
2019-03-08T12:10:04.978Z,13.70
2019-03-08T12:12:38.227Z,13.60
2019-03-08T12:15:14.426Z,13.60
2019-03-08T12:17:58.056Z,13.40
2019-03-08T12:20:28.727Z,13.30
2019-03-08T12:23:08.743Z,13.30
2019-03-08T12:25:40.921Z,13.30
2019-03-08T12:28:12.516Z,13.30
2019-03-08T12:30:43.207Z,13.30
2019-03-08T12:33:17.092Z,13.30
2019-03-08T12:36:06.034Z,13.40
2019-03-08T12:38:37.056Z,13.40
2019-03-08T12:41:24.075Z,13.50
2019-03-08T12:44:08.101Z,13.40
2019-03-08T12:46:50.799Z,13.30
2019-03-08T12:49:22.533Z,13.00
2019-03-08T12:51:59.184Z,12.70
2019-03-08T12:54:30.415Z,12.50
2019-03-08T12:57:03.837Z,12.30
2019-03-08T12:59:37.258Z,12.20
2019-03-08T13:02:24.031Z,12.20
2019-03-08T13:05:11.130Z,12.30
2019-03-08T13:07:41.790Z,12.30
2019-03-08T13:10:13.714Z,12.30
2019-03-08T13:12:43.192Z,12.30
2019-03-08T13:15:14.700Z,12.40
2019-03-08T13:17:44.196Z,12.50
2019-03-08T13:20:17.808Z,12.60
2019-03-08T13:22:47.219Z,12.70
2019-03-08T13:25:16.506Z,12.70
2019-03-08T13:27:45.777Z,12.70
2019-03-08T13:30:23.365Z,12.60
2019-03-08T13:32:53.177Z,12.50
2019-03-08T13:35:22.763Z,12.50
2019-03-08T13:37:52.359Z,12.50
2019-03-08T13:40:22.066Z,12.40
2019-03-08T13:42:51.227Z,12.30
2019-03-08T13:45:22.210Z,12.20
2019-03-08T13:47:51.947Z,12.00
2019-03-08T13:50:21.204Z,12.00
2019-03-08T13:52:50.617Z,12.00
2019-03-08T13:55:19.709Z,11.90
2019-03-08T13:57:48.885Z,11.80
2019-03-08T14:00:20.257Z,11.70
2019-03-08T14:02:49.465Z,11.60
2019-03-08T14:05:19.777Z,11.50
2019-03-08T14:07:50.453Z,11.40
2019-03-08T14:10:21.269Z,11.40
2019-03-08T14:12:50.631Z,11.20
2019-03-08T14:15:19.618Z,11.00
2019-03-08T14:17:48.763Z,10.90
2019-03-08T14:20:20.377Z,10.60
2019-03-08T14:22:49.510Z,10.40
2019-03-08T14:25:18.350Z,10.30
2019-03-08T14:27:46.888Z,10.20
2019-03-08T14:30:28.111Z,10.10
2019-03-08T14:33:01.533Z,10.00
2019-03-08T14:35:30.979Z,10.00
2019-03-08T14:38:00.808Z,10.00
2019-03-08T14:40:34.342Z,10.00
2019-03-08T14:43:23.086Z,10.00
2019-03-08T14:45:53.744Z,10.00
2019-03-08T14:48:23.420Z,10.10
2019-03-08T14:50:51.811Z,10.00
2019-03-08T14:53:20.432Z,10.00
2019-03-08T14:55:48.887Z,9.90
2019-03-08T14:58:16.844Z,9.80
2019-03-08T15:00:45.615Z,9.80
2019-03-08T15:03:14.191Z,9.80
2019-03-08T15:05:42.872Z,9.70
2019-03-08T15:08:13.709Z,9.70
2019-03-08T15:10:43.579Z,9.60
2019-03-08T15:13:11.891Z,9.60
2019-03-08T15:15:40.459Z,9.60
2019-03-08T15:18:09.148Z,9.50
2019-03-08T15:20:37.916Z,9.50
2019-03-08T15:23:07.395Z,9.50
2019-03-08T15:25:35.441Z,9.40
2019-03-08T15:34:43.107Z,9.40
2019-03-08T15:37:12.252Z,9.40
2019-03-08T15:39:40.712Z,9.40
2019-03-08T15:42:08.888Z,9.30
2019-03-08T15:44:36.991Z,9.30
2019-03-08T15:47:05.154Z,9.30
2019-03-08T15:49:33.480Z,9.30
2019-03-08T15:52:03.584Z,9.30
2019-03-08T15:54:31.055Z,9.20
2019-03-08T15:56:58.886Z,9.20
2019-03-08T15:59:26.854Z,9.20
2019-03-08T16:01:54.908Z,9.20
2019-03-08T16:04:23.095Z,9.20
2019-03-08T16:06:51.338Z,9.20
2019-03-08T16:09:19.903Z,9.20
2019-03-08T16:11:48.073Z,9.20
2019-03-08T16:14:16.257Z,9.20
2019-03-08T16:16:44.497Z,9.10
2019-03-08T16:19:12.353Z,9.10
2019-03-08T16:21:40.707Z,9.10
2019-03-08T16:24:10.391Z,9.00
2019-03-08T16:26:40.882Z,9.00
2019-03-08T16:29:09.036Z,8.90
2019-03-08T16:31:41.895Z,8.90
2019-03-08T16:34:12.623Z,8.90
2019-03-08T16:36:48.600Z,8.80
2019-03-08T16:39:21.416Z,8.80
2019-03-08T16:42:09.147Z,8.80
2019-03-08T16:44:55.373Z,8.70
2019-03-08T16:47:42.665Z,8.60
2019-03-08T16:50:25.928Z,8.50
2019-03-08T16:52:57.989Z,8.40
2019-03-08T16:55:29.760Z,8.30
2019-03-08T16:58:15.681Z,8.30
2019-03-08T17:00:45.616Z,8.20
2019-03-08T17:03:30.529Z,8.20
2019-03-08T17:06:03.504Z,8.10
2019-03-08T17:08:49.224Z,8.10
2019-03-08T17:11:33.609Z,8.00
2019-03-08T17:14:19.607Z,8.00
2019-03-08T17:16:52.204Z,7.90
2019-03-08T17:19:36.403Z,7.90
2019-03-08T17:22:24.608Z,7.90
2019-03-08T17:25:03.353Z,7.90
2019-03-08T17:27:35.830Z,7.90
2019-03-08T17:30:09.967Z,7.90
2019-03-08T17:32:55.975Z,7.80
2019-03-08T17:35:42.942Z,7.80
2019-03-08T17:38:13.297Z,7.80
2019-03-08T17:40:56.777Z,7.80
2019-03-08T17:43:43.892Z,7.70
2019-03-08T17:46:30.421Z,7.70
2019-03-08T17:49:02.356Z,7.80
2019-03-08T17:51:35.034Z,7.70
2019-03-08T17:54:20.624Z,7.70
2019-03-08T17:56:52.996Z,7.70
2019-03-08T17:59:22.511Z,7.70
2019-03-08T18:02:00.903Z,7.60
2019-03-08T18:04:30.457Z,7.60
2019-03-08T18:07:02.824Z,7.60
2019-03-08T18:09:41.052Z,7.60
2019-03-08T18:12:16.445Z,7.60
2019-03-08T18:14:54.792Z,7.60
2019-03-08T18:17:27.467Z,7.50
2019-03-08T18:19:57.162Z,7.50
2019-03-08T18:22:27.302Z,7.40
2019-03-08T18:25:03.011Z,7.40
2019-03-08T18:27:47.000Z,7.40
2019-03-08T18:30:34.882Z,7.40
2019-03-08T18:33:20.035Z,7.30
2019-03-08T18:35:53.094Z,7.30
2019-03-08T18:38:41.156Z,7.30
2019-03-08T18:41:27.795Z,7.30
2019-03-08T18:44:06.709Z,7.20
2019-03-08T18:46:48.401Z,7.20
2019-03-08T18:49:33.409Z,7.10
2019-03-08T18:52:15.705Z,7.10
2019-03-08T18:54:45.534Z,7.10
2019-03-08T18:57:24.422Z,7.10
2019-03-08T19:00:03.328Z,7.10
2019-03-08T19:02:45.709Z,7.00
2019-03-08T19:05:21.592Z,7.00
2019-03-08T19:08:09.736Z,6.90
2019-03-08T19:10:48.808Z,6.90
2019-03-08T19:13:27.872Z,6.90
2019-03-08T19:16:03.838Z,6.90
2019-03-08T19:18:42.351Z,6.90
2019-03-08T19:21:21.270Z,6.90
2019-03-08T19:23:51.523Z,6.90
2019-03-08T19:26:21.526Z,6.90
2019-03-08T19:28:57.195Z,6.90
2019-03-08T19:31:26.850Z,6.90
2019-03-08T19:34:02.517Z,6.90
2019-03-08T19:36:48.865Z,6.90
2019-03-08T19:39:18.654Z,6.80
2019-03-08T19:42:00.578Z,6.90
2019-03-08T19:44:39.734Z,6.80
2019-03-08T19:47:15.973Z,6.80
2019-03-08T19:49:58.043Z,6.80
2019-03-08T19:52:44.204Z,6.70
2019-03-08T19:55:14.028Z,6.70
2019-03-08T19:57:43.906Z,6.70
2019-03-08T20:00:17.893Z,6.60
2019-03-08T20:02:50.994Z,6.60
2019-03-08T20:05:23.987Z,6.60
2019-03-08T20:08:10.140Z,6.50
2019-03-08T20:10:56.579Z,6.50
2019-03-08T20:13:43.115Z,6.50
2019-03-08T20:16:29.597Z,6.40
2019-03-08T20:18:59.186Z,6.40
2019-03-08T20:21:40.675Z,6.40
2019-03-08T20:24:10.417Z,6.40
2019-03-08T20:26:42.945Z,6.30
2019-03-08T20:29:28.901Z,6.30
2019-03-08T20:32:07.534Z,6.30
2019-03-08T20:34:37.681Z,6.20
2019-03-08T20:37:23.875Z,6.20
2019-03-08T20:39:59.761Z,6.20
2019-03-08T20:42:29.464Z,6.10
2019-03-08T20:45:01.871Z,6.10
2019-03-08T20:47:31.527Z,6.10
2019-03-08T20:50:00.617Z,6.10
2019-03-08T20:52:28.599Z,6.10
2019-03-08T20:54:58.291Z,6.10
2019-03-08T20:57:27.603Z,6.00
2019-03-08T20:59:55.602Z,6.10
2019-03-08T21:02:23.572Z,6.10
2019-03-08T21:04:51.603Z,6.00
2019-03-08T21:07:19.643Z,6.00
2019-03-08T21:09:48.045Z,6.00
2019-03-08T21:12:16.075Z,6.00
2019-03-08T21:14:43.928Z,5.90
2019-03-08T21:17:11.704Z,5.90
2019-03-08T21:19:40.157Z,5.80
2019-03-08T21:22:08.399Z,5.80
2019-03-08T21:24:36.677Z,5.80
2019-03-08T21:27:07.937Z,5.70
2019-03-08T21:29:36.357Z,5.70
2019-03-08T21:32:04.691Z,5.60
2019-03-08T21:34:32.985Z,5.60
2019-03-08T21:37:01.240Z,5.60
2019-03-08T21:39:29.362Z,5.50
2019-03-08T21:41:57.541Z,5.50
2019-03-08T21:44:25.832Z,5.50
2019-03-08T21:46:53.926Z,5.40
2019-03-08T21:49:21.901Z,5.40
2019-03-08T21:51:49.951Z,5.30
2019-03-08T21:54:17.928Z,5.30
2019-03-08T21:56:46.672Z,5.30
2019-03-08T21:59:15.337Z,5.20
2019-03-08T22:01:43.972Z,5.10
2019-03-08T22:04:14.301Z,5.10
2019-03-08T22:06:42.372Z,5.00
2019-03-08T22:09:17.812Z,5.00
2019-03-08T22:11:50.452Z,4.90
2019-03-08T22:14:20.128Z,4.90
2019-03-08T22:16:48.523Z,4.90
2019-03-08T22:19:16.602Z,4.80
2019-03-08T22:21:44.739Z,4.70
2019-03-08T22:24:14.416Z,4.70
2019-03-08T22:26:42.668Z,4.70
2019-03-08T22:29:10.753Z,4.60
2019-03-08T22:31:40.306Z,4.60
2019-03-08T22:34:08.657Z,4.50
2019-03-08T22:36:36.932Z,4.50
2019-03-08T22:39:06.270Z,4.50
2019-03-08T22:41:34.314Z,4.50
2019-03-08T22:44:02.240Z,4.40
2019-03-08T22:46:30.202Z,4.40
2019-03-08T22:49:00.275Z,4.40
2019-03-08T22:51:28.400Z,4.30
2019-03-08T22:53:57.991Z,4.30
2019-03-08T22:56:27.511Z,4.30
2019-03-08T22:58:55.592Z,4.20
2019-03-08T23:01:24.104Z,4.20
2019-03-08T23:03:52.267Z,4.20
2019-03-08T23:06:20.432Z,4.20
2019-03-08T23:08:48.442Z,4.20
2019-03-08T23:11:16.551Z,4.10
2019-03-08T23:13:44.513Z,4.10
2019-03-08T23:16:12.636Z,4.10
2019-03-08T23:18:43.749Z,4.10
2019-03-08T23:21:12.879Z,4.10
2019-03-08T23:23:40.690Z,4.20
2019-03-08T23:26:08.855Z,4.30
2019-03-08T23:28:44.701Z,4.40
2019-03-08T23:31:14.326Z,4.40
2019-03-08T23:33:42.530Z,4.50
2019-03-08T23:36:11.155Z,4.60
2019-03-08T23:38:41.867Z,4.60
2019-03-08T23:41:09.830Z,4.60
2019-03-08T23:43:37.939Z,4.60
2019-03-08T23:46:05.819Z,4.50
2019-03-08T23:48:34.066Z,4.40
2019-03-08T23:51:01.910Z,4.40
2019-03-08T23:53:29.981Z,4.30
2019-03-08T23:55:58.051Z,4.30
2019-03-08T23:58:26.134Z,4.20
